Time;durP1;ratioP1;P1;durP2;ratioP2;P2;SDS_P1;SDS_P2;PMS_P1;PMS_P2;Temp;Humidity;BMP_temperature;BMP_pressure;BME280_temperature;BME280_humidity;BME280_pressure;Samples;Min_cycle;Max_cycle;Signal;HPM_P1;HPM_P2
2021/06/19 00:00:36;;;;;;;5.28;2.25;;;26.40;75.90;;;;;;5027189;28;20025;-83
2021/06/19 00:03:03;;;;;;;4.78;2.30;;;26.40;75.80;;;;;;5029074;28;20028;-83
2021/06/19 00:05:29;;;;;;;9.05;2.60;;;26.40;75.40;;;;;;5028723;28;20392;-82
2021/06/19 00:07:56;;;;;;;5.40;2.28;;;26.30;75.20;;;;;;5030352;28;20137;-83
2021/06/19 00:10:22;;;;;;;6.05;1.90;;;26.30;75.00;;;;;;5028082;28;20085;-83
2021/06/19 00:12:49;;;;;;;4.15;2.50;;;26.20;75.00;;;;;;5030333;28;20112;-83
2021/06/19 00:15:17;;;;;;;3.13;1.73;;;26.20;75.10;;;;;;5028391;28;20065;-82
2021/06/19 00:17:43;;;;;;;5.13;2.05;;;26.20;75.30;;;;;;5029774;28;20021;-83
2021/06/19 00:20:27;;;;;;;6.57;2.10;;;26.20;75.20;;;;;;5028142;28;20026;-83
2021/06/19 00:22:54;;;;;;;4.22;1.70;;;26.10;74.70;;;;;;5030382;28;20022;-82
2021/06/19 00:25:22;;;;;;;4.55;1.90;;;26.10;74.60;;;;;;5030073;28;20018;-82
2021/06/19 00:27:48;;;;;;;3.22;1.55;;;26.10;74.70;;;;;;5028926;28;20374;-83
2021/06/19 00:30:15;;;;;;;3.38;1.85;;;26.10;74.70;;;;;;5029471;28;20112;-82
2021/06/19 00:32:41;;;;;;;4.35;1.70;;;26.00;74.70;;;;;;5028512;28;20418;-82
2021/06/19 00:35:08;;;;;;;4.18;1.77;;;26.00;74.80;;;;;;5030373;28;20025;-85
2021/06/19 00:37:34;;;;;;;2.95;1.60;;;26.00;74.70;;;;;;5034357;28;20033;-85
2021/06/19 00:40:01;;;;;;;5.47;1.40;;;26.00;74.70;;;;;;5033747;28;20025;-85
2021/06/19 00:42:27;;;;;;;3.28;1.55;;;25.90;74.60;;;;;;5036392;28;20615;-85
2021/06/19 00:44:56;;;;;;;5.43;1.85;;;25.90;74.50;;;;;;5039884;28;20036;-85
2021/06/19 00:47:22;;;;;;;3.28;1.67;;;25.90;74.40;;;;;;5034967;28;20196;-84
2021/06/19 00:49:48;;;;;;;3.28;1.63;;;25.90;74.40;;;;;;5028452;28;20196;-82
2021/06/19 00:52:13;;;;;;;3.17;1.80;;;25.90;74.50;;;;;;5030008;28;20032;-83
2021/06/19 00:54:39;;;;;;;5.97;1.65;;;25.90;74.50;;;;;;5030483;28;20060;-83
2021/06/19 00:57:08;;;;;;;6.25;1.70;;;25.90;74.50;;;;;;5028383;28;20060;-83
2021/06/19 00:59:35;;;;;;;4.53;1.55;;;25.80;74.30;;;;;;5029927;28;20056;-83
2021/06/19 01:02:01;;;;;;;3.22;1.42;;;25.80;74.40;;;;;;5029020;28;20033;-83
2021/06/19 01:04:26;;;;;;;2.65;1.45;;;25.80;74.40;;;;;;5029089;28;20036;-83
2021/06/19 01:06:52;;;;;;;2.72;1.30;;;25.80;74.20;;;;;;5030294;28;20029;-83
2021/06/19 01:09:18;;;;;;;2.67;1.30;;;25.80;74.40;;;;;;5037469;28;20048;-83
2021/06/19 01:11:44;;;;;;;1.60;1.15;;;25.80;74.60;;;;;;5049243;28;20116;-82
2021/06/19 01:14:09;;;;;;;5.65;1.30;;;25.80;74.60;;;;;;5052613;28;20037;-82
2021/06/19 01:16:35;;;;;;;1.60;1.30;;;25.70;74.70;;;;;;5051290;28;20034;-82
2021/06/19 01:19:02;;;;;;;1.92;1.10;;;25.70;74.70;;;;;;5052255;28;20052;-82
2021/06/19 01:21:29;;;;;;;2.25;1.33;;;25.70;74.80;;;;;;5051154;28;20021;-82
2021/06/19 01:23:56;;;;;;;3.33;1.30;;;25.70;74.80;;;;;;5051099;28;20406;-83
2021/06/19 01:26:30;;;;;;;2.70;1.40;;;25.70;75.00;;;;;;5033189;28;20025;-83
2021/06/19 01:28:57;;;;;;;3.88;1.65;;;25.60;74.80;;;;;;5032954;28;20053;-83
2021/06/19 01:31:24;;;;;;;3.60;1.70;;;25.60;74.90;;;;;;5032575;28;20025;-83
2021/06/19 01:33:50;;;;;;;4.60;2.00;;;25.60;74.80;;;;;;5031873;28;20032;-83
2021/06/19 01:36:18;;;;;;;4.93;1.95;;;25.50;75.00;;;;;;5031550;28;20018;-83
2021/06/19 01:38:50;;;;;;;6.33;2.10;;;25.50;74.90;;;;;;5031672;28;20022;-83
2021/06/19 01:41:21;;;;;;;7.28;2.47;;;25.50;75.20;;;;;;5032680;28;20697;-83
2021/06/19 01:43:48;;;;;;;5.40;1.95;;;25.50;75.20;;;;;;5033188;28;20462;-82
2021/06/19 01:46:15;;;;;;;3.78;1.77;;;25.50;75.50;;;;;;5030619;28;20166;-83
2021/06/19 01:48:41;;;;;;;5.63;2.00;;;25.40;75.50;;;;;;5031355;28;20032;-82
2021/06/19 01:51:11;;;;;;;5.30;1.80;;;25.40;75.70;;;;;;5031829;28;20021;-83
2021/06/19 01:53:39;;;;;;;3.33;1.52;;;25.40;76.50;;;;;;5031215;28;20086;-83
2021/06/19 01:56:05;;;;;;;3.70;1.50;;;25.40;76.00;;;;;;5030873;28;20037;-83
2021/06/19 01:58:31;;;;;;;2.65;1.42;;;25.40;76.10;;;;;;5031121;28;20029;-82
2021/06/19 02:00:57;;;;;;;1.98;1.33;;;25.30;76.30;;;;;;5030034;28;20515;-83
2021/06/19 02:03:22;;;;;;;3.25;1.50;;;25.30;76.50;;;;;;5032432;28;20533;-83
2021/06/19 02:05:48;;;;;;;2.30;1.42;;;25.30;76.70;;;;;;5030664;28;20025;-83
2021/06/19 02:08:13;;;;;;;2.72;1.20;;;25.20;76.80;;;;;;5032366;28;20470;-83
2021/06/19 02:10:42;;;;;;;6.32;1.38;;;25.20;77.10;;;;;;5030092;28;20037;-83
2021/06/19 02:13:08;;;;;;;4.50;1.55;;;25.10;77.30;;;;;;5032377;28;20026;-81
2021/06/19 02:15:36;;;;;;;4.32;1.45;;;25.10;77.50;;;;;;5030010;28;20603;-82
2021/06/19 02:18:03;;;;;;;2.60;1.35;;;25.10;77.70;;;;;;5032365;28;20030;-82
2021/06/19 02:20:29;;;;;;;5.25;1.25;;;25.10;77.80;;;;;;5031429;28;20029;-83
2021/06/19 02:22:55;;;;;;;2.05;1.25;;;25.00;77.80;;;;;;5030450;28;20056;-83
2021/06/19 02:25:23;;;;;;;6.88;1.50;;;25.00;77.90;;;;;;5031368;28;20099;-83
2021/06/19 02:27:56;;;;;;;2.25;1.60;;;25.00;77.90;;;;;;5031975;28;20025;-83
2021/06/19 02:30:25;;;;;;;4.93;1.30;;;25.00;78.20;;;;;;5031109;28;20057;-82
2021/06/19 02:32:52;;;;;;;3.85;1.40;;;24.90;78.30;;;;;;5031592;28;20112;-83
2021/06/19 02:35:19;;;;;;;2.30;1.30;;;25.00;78.40;;;;;;5031698;28;20053;-82
2021/06/19 02:37:44;;;;;;;3.35;1.70;;;24.90;78.40;;;;;;5031523;28;20553;-83
2021/06/19 02:40:11;;;;;;;1.70;1.30;;;24.90;78.50;;;;;;5029766;28;20109;-82
2021/06/19 02:42:38;;;;;;;5.15;1.95;;;24.90;78.50;;;;;;5031492;28;20125;-84
2021/06/19 02:45:12;;;;;;;3.95;1.50;;;24.90;79.20;;;;;;5029837;28;20022;-84
2021/06/19 02:47:43;;;;;;;4.40;1.80;;;24.90;78.80;;;;;;5031389;28;20025;-85
2021/06/19 02:50:10;;;;;;;4.07;2.00;;;24.80;79.60;;;;;;5029496;28;20048;-83
2021/06/19 02:52:43;;;;;;;4.20;2.00;;;24.80;79.10;;;;;;5031189;28;20039;-84
2021/06/19 02:55:18;;;;;;;5.22;2.08;;;24.80;79.10;;;;;;5029909;28;20030;-83
2021/06/19 02:57:45;;;;;;;4.50;1.63;;;24.70;79.30;;;;;;5029996;28;20030;-84
2021/06/19 03:00:14;;;;;;;4.78;1.58;;;24.70;79.30;;;;;;5030437;28;20022;-83
2021/06/19 03:02:39;;;;;;;3.88;1.63;;;24.70;79.30;;;;;;5028397;28;20101;-84
2021/06/19 03:05:07;;;;;;;1.98;1.30;;;24.70;79.20;;;;;;5030580;28;20029;-84
2021/06/19 03:07:33;;;;;;;4.53;1.63;;;24.60;79.30;;;;;;5031134;28;20101;-84
2021/06/19 03:09:59;;;;;;;2.78;1.20;;;24.60;79.60;;;;;;5029671;28;20041;-83
2021/06/19 03:12:27;;;;;;;4.20;1.50;;;24.60;79.80;;;;;;5031249;28;20038;-84
2021/06/19 03:14:54;;;;;;;3.30;1.35;;;24.50;80.00;;;;;;5031084;28;20106;-84
2021/06/19 03:17:20;;;;;;;3.35;1.40;;;24.50;80.30;;;;;;5030706;28;20082;-83
2021/06/19 03:19:46;;;;;;;2.20;1.30;;;24.50;81.00;;;;;;5029253;28;20033;-84
2021/06/19 03:22:11;;;;;;;2.58;1.10;;;24.40;80.50;;;;;;5029561;28;20022;-83
2021/06/19 03:24:42;;;;;;;2.53;1.20;;;24.40;80.70;;;;;;5031051;28;20076;-83
2021/06/19 03:27:09;;;;;;;3.20;1.40;;;24.40;80.80;;;;;;5031008;28;20025;-83
2021/06/19 03:29:36;;;;;;;3.40;1.30;;;24.30;80.90;;;;;;5028657;28;20032;-84
2021/06/19 03:32:02;;;;;;;1.65;1.13;;;24.30;81.00;;;;;;5030558;28;20079;-83
2021/06/19 03:34:30;;;;;;;3.53;1.58;;;24.30;81.30;;;;;;5029114;28;20029;-84
2021/06/19 03:36:59;;;;;;;4.53;1.42;;;24.30;81.50;;;;;;5029063;28;20171;-84
2021/06/19 03:39:26;;;;;;;2.35;1.13;;;24.30;81.70;;;;;;5028634;28;20375;-84
2021/06/19 03:41:52;;;;;;;3.08;1.70;;;24.30;81.80;;;;;;5030492;28;20022;-83
2021/06/19 03:44:17;;;;;;;2.35;1.55;;;24.30;81.90;;;;;;5030484;28;20544;-84
2021/06/19 03:46:43;;;;;;;3.45;1.48;;;24.20;81.90;;;;;;5031912;28;20048;-84
2021/06/19 03:49:08;;;;;;;4.63;1.73;;;24.20;82.00;;;;;;5033470;28;20040;-84
2021/06/19 03:51:34;;;;;;;4.15;1.48;;;24.20;82.20;;;;;;5031435;28;20075;-83
2021/06/19 03:54:00;;;;;;;2.78;1.40;;;24.20;82.20;;;;;;5029245;28;20028;-84
2021/06/19 03:56:26;;;;;;;3.40;1.23;;;24.20;82.40;;;;;;5028797;28;20034;-83
2021/06/19 03:58:52;;;;;;;3.40;1.13;;;24.10;82.60;;;;;;5030465;28;20025;-83
2021/06/19 04:01:18;;;;;;;2.85;1.20;;;24.10;83.30;;;;;;5028441;28;20454;-84
2021/06/19 04:03:43;;;;;;;2.20;1.27;;;24.10;83.00;;;;;;5029166;28;20163;-84
2021/06/19 04:06:09;;;;;;;3.08;1.50;;;24.10;83.10;;;;;;5028729;28;20021;-84
2021/06/19 04:08:34;;;;;;;3.78;1.42;;;24.00;83.20;;;;;;5030608;28;20021;-84
2021/06/19 04:11:00;;;;;;;3.95;2.10;;;24.00;83.50;;;;;;5029494;28;20021;-85
2021/06/19 04:13:26;;;;;;;3.60;1.58;;;24.00;83.30;;;;;;5028847;28;20032;-84
2021/06/19 04:15:51;;;;;;;1.83;1.27;;;24.00;84.30;;;;;;5028079;28;20106;-83
2021/06/19 04:18:17;;;;;;;3.45;1.45;;;23.90;83.50;;;;;;5044656;23;20493;-85
2021/06/19 04:20:42;;;;;;;1.92;1.40;;;24.00;83.60;;;;;;5031812;28;20025;-83
2021/06/19 04:23:08;;;;;;;3.08;2.10;;;23.90;84.00;;;;;;5032214;28;20477;-84
2021/06/19 04:25:34;;;;;;;2.85;1.65;;;24.10;91.00;;;;;;5032786;28;20246;-84
2021/06/19 04:27:59;;;;;;;3.38;1.63;;;24.20;88.70;;;;;;5038388;28;20045;-83
2021/06/19 04:30:26;;;;;;;3.58;1.63;;;24.20;86.80;;;;;;5038545;28;20026;-84
2021/06/19 04:32:53;;;;;;;3.13;1.50;;;24.10;86.30;;;;;;5039599;28;20021;-84
2021/06/19 04:35:25;;;;;;;3.20;1.48;;;24.20;87.00;;;;;;5037746;28;20028;-84
2021/06/19 04:37:51;;;;;;;3.33;1.63;;;24.20;85.20;;;;;;5038273;28;20171;-84
2021/06/19 04:40:25;;;;;;;3.88;1.65;;;24.20;86.00;;;;;;5037530;28;20082;-84
2021/06/19 04:45:24;;;;;;;2.75;1.45;;;24.10;85.60;;;;;;5032936;28;20021;-82
2021/06/19 04:47:49;;;;;;;3.65;1.60;;;24.20;85.80;;;;;;5034928;28;20028;-82
2021/06/19 04:50:15;;;;;;;2.65;1.42;;;24.20;86.10;;;;;;5035069;28;20021;-83
2021/06/19 04:52:42;;;;;;;3.55;1.85;;;24.20;86.30;;;;;;5036623;28;20032;-83
2021/06/19 04:55:14;;;;;;;2.72;1.40;;;24.20;85.00;;;;;;5037392;28;20029;-83
2021/06/19 04:57:40;;;;;;;6.30;2.20;;;24.20;86.20;;;;;;5035980;28;20485;-83
2021/06/19 05:00:08;;;;;;;2.90;1.50;;;24.10;85.70;;;;;;5034888;28;20095;-83
2021/06/19 05:02:33;;;;;;;4.13;1.73;;;24.10;86.10;;;;;;5033264;28;20080;-82
2021/06/19 05:04:59;;;;;;;3.70;1.90;;;24.10;86.20;;;;;;5034916;28;20030;-83
2021/06/19 05:07:25;;;;;;;4.20;2.25;;;24.10;86.00;;;;;;5032990;28;20125;-83
2021/06/19 05:09:50;;;;;;;3.17;1.80;;;24.10;85.80;;;;;;5032760;28;20026;-83
2021/06/19 05:12:16;;;;;;;4.28;2.08;;;24.20;86.10;;;;;;5033316;28;20021;-82
2021/06/19 05:14:41;;;;;;;4.07;2.00;;;24.10;85.90;;;;;;5033264;28;20128;-83
2021/06/19 05:17:07;;;;;;;2.88;1.60;;;24.10;86.10;;;;;;5034077;28;20029;-84
2021/06/19 05:19:33;;;;;;;3.42;1.83;;;24.10;86.10;;;;;;5032609;28;20064;-83
2021/06/19 05:21:58;;;;;;;4.90;1.95;;;24.10;86.20;;;;;;5032386;28;20030;-83
2021/06/19 05:24:24;;;;;;;4.55;1.70;;;24.10;86.70;;;;;;5033528;28;20025;-82
2021/06/19 05:26:50;;;;;;;6.80;3.55;;;24.10;86.80;;;;;;5032610;28;20032;-84
2021/06/19 05:29:15;;;;;;;3.42;1.90;;;24.10;85.00;;;;;;5033209;28;20112;-84
2021/06/19 05:31:41;;;;;;;7.53;2.40;;;24.20;86.40;;;;;;5031759;28;20453;-85
2021/06/19 05:34:07;;;;;;;5.45;2.20;;;24.10;85.30;;;;;;5032544;28;20025;-84
2021/06/19 05:36:32;;;;;;;5.50;2.30;;;24.20;84.90;;;;;;5032172;28;20028;-82
2021/06/19 05:38:58;;;;;;;4.18;1.80;;;24.10;86.30;;;;;;5024351;28;20498;-84
2021/06/19 05:41:23;;;;;;;3.75;1.60;;;24.10;86.80;;;;;;5013001;28;20049;-84
2021/06/19 05:43:49;;;;;;;4.88;1.95;;;24.10;86.10;;;;;;5014161;28;20490;-83
2021/06/19 05:46:15;;;;;;;4.15;1.77;;;24.10;86.30;;;;;;5013751;28;20080;-84
2021/06/19 05:48:40;;;;;;;3.85;1.73;;;24.20;85.70;;;;;;5014121;28;20030;-84
2021/06/19 05:51:06;;;;;;;3.97;1.75;;;24.20;85.80;;;;;;5011679;28;20034;-84
2021/06/19 05:53:32;;;;;;;4.75;1.60;;;24.20;86.10;;;;;;5029193;28;20092;-85
2021/06/19 05:55:57;;;;;;;3.28;1.80;;;24.20;85.40;;;;;;5028835;28;20107;-83
2021/06/19 05:58:23;;;;;;;3.17;1.70;;;24.20;83.80;;;;;;5012982;28;20030;-84
2021/06/19 06:00:48;;;;;;;3.83;1.98;;;24.20;84.70;;;;;;5012822;28;20022;-84
2021/06/19 06:03:14;;;;;;;4.97;1.92;;;24.10;82.90;;;;;;5028839;28;20037;-84
2021/06/19 06:05:40;;;;;;;5.00;1.77;;;24.10;84.10;;;;;;5012267;28;20351;-83
2021/06/19 06:08:05;;;;;;;4.40;1.70;;;24.10;84.30;;;;;;5012279;28;20030;-83
2021/06/19 06:10:31;;;;;;;3.38;1.67;;;24.00;83.50;;;;;;5013261;28;20037;-84
2021/06/19 06:12:57;;;;;;;3.92;1.80;;;24.10;84.60;;;;;;5012244;28;20025;-84
2021/06/19 06:15:27;;;;;;;3.15;1.77;;;24.10;84.70;;;;;;5011760;28;20093;-84
2021/06/19 06:17:53;;;;;;;3.63;1.50;;;24.00;84.00;;;;;;5011685;28;20030;-84
2021/06/19 06:20:19;;;;;;;3.38;1.27;;;24.00;84.40;;;;;;5012492;28;20372;-84
2021/06/19 06:22:45;;;;;;;2.13;1.30;;;24.00;84.40;;;;;;5011529;28;20030;-84
2021/06/19 06:25:11;;;;;;;3.38;1.58;;;24.00;84.50;;;;;;5011781;28;20117;-84
2021/06/19 06:27:39;;;;;;;2.50;1.25;;;24.10;84.10;;;;;;5027599;23;21203;-85
2021/06/19 06:30:05;;;;;;;4.30;1.70;;;24.10;84.20;;;;;;5029238;28;20033;-85
2021/06/19 06:32:33;;;;;;;2.55;1.65;;;24.10;83.40;;;;;;5031505;28;20129;-85
2021/06/19 06:34:59;;;;;;;2.95;1.73;;;24.20;83.90;;;;;;5030178;28;20109;-85
2021/06/19 06:37:25;;;;;;;3.72;2.20;;;24.10;83.60;;;;;;5031536;28;20040;-85
2021/06/19 06:39:51;;;;;;;3.00;1.60;;;24.00;82.70;;;;;;5031340;28;20323;-85
2021/06/19 06:42:17;;;;;;;2.42;1.30;;;24.00;83.60;;;;;;5030155;28;20029;-84
2021/06/19 06:44:42;;;;;;;2.97;1.50;;;24.10;84.30;;;;;;5030721;28;20018;-87
2021/06/19 06:47:10;;;;;;;4.68;1.83;;;24.10;83.80;;;;;;5031917;28;20036;-86
2021/06/19 06:49:35;;;;;;;2.42;1.48;;;24.20;84.00;;;;;;5032388;28;20026;-86
2021/06/19 06:52:01;;;;;;;2.42;1.33;;;24.20;83.60;;;;;;5030769;28;20033;-88
2021/06/19 06:54:28;;;;;;;2.95;1.45;;;24.20;83.70;;;;;;5030726;28;20431;-88
2021/06/19 06:56:55;;;;;;;4.28;1.77;;;24.20;83.70;;;;;;5031981;28;20021;-84
2021/06/19 06:59:21;;;;;;;5.70;2.00;;;24.20;82.70;;;;;;5030509;28;20134;-85
2021/06/19 07:01:47;;;;;;;3.35;1.70;;;24.20;82.70;;;;;;5031785;28;20049;-85
2021/06/19 07:04:12;;;;;;;3.22;2.00;;;24.30;83.10;;;;;;5032040;28;20466;-85
2021/06/19 07:06:38;;;;;;;8.75;4.85;;;24.20;83.20;;;;;;5033457;28;20065;-89
2021/06/19 07:09:04;;;;;;;4.13;1.85;;;24.20;83.40;;;;;;5031843;28;20029;-90
2021/06/19 07:11:30;;;;;;;5.22;2.92;;;24.20;83.50;;;;;;5029637;28;20132;-90
2021/06/19 07:13:55;;;;;;;5.75;2.40;;;24.20;82.30;;;;;;5030429;28;20026;-85
2021/06/19 07:16:21;;;;;;;3.92;1.63;;;24.10;81.90;;;;;;5030419;28;20025;-88
2021/06/19 07:18:47;;;;;;;6.82;3.00;;;24.10;82.10;;;;;;5032088;28;20024;-90
2021/06/19 07:21:12;;;;;;;4.72;1.95;;;24.10;81.80;;;;;;5030202;28;20036;-92
2021/06/19 07:23:38;;;;;;;3.33;1.90;;;24.10;81.70;;;;;;5030278;28;20028;-90
2021/06/19 07:26:04;;;;;;;2.45;1.52;;;24.10;81.00;;;;;;5029978;28;20063;-89
2021/06/19 07:28:29;;;;;;;5.63;2.72;;;24.10;81.10;;;;;;5029765;28;20033;-87
2021/06/19 07:30:55;;;;;;;3.38;1.95;;;24.10;81.80;;;;;;5028780;28;20032;-86
2021/06/19 07:33:21;;;;;;;3.53;1.90;;;24.10;81.50;;;;;;5030976;28;20521;-86
2021/06/19 07:35:47;;;;;;;3.45;1.52;;;24.10;83.20;;;;;;5029200;28;20065;-86
2021/06/19 07:38:12;;;;;;;4.28;2.15;;;24.20;83.00;;;;;;5029226;28;20028;-85
2021/06/19 07:40:38;;;;;;;3.10;2.00;;;24.30;82.40;;;;;;5028644;28;20021;-85
2021/06/19 07:43:05;;;;;;;2.83;1.75;;;24.30;81.80;;;;;;5032165;28;20021;-93
2021/06/19 07:45:31;;;;;;;5.70;2.17;;;24.40;81.20;;;;;;5030264;28;20030;-87
2021/06/19 07:47:56;;;;;;;3.85;1.70;;;24.40;80.00;;;;;;5031118;28;20033;-86
2021/06/19 07:50:22;;;;;;;4.20;1.90;;;24.40;80.90;;;;;;5028652;28;20411;-85
2021/06/19 07:52:48;;;;;;;4.15;1.90;;;24.40;79.40;;;;;;5029478;28;20026;-87
2021/06/19 07:55:14;;;;;;;3.72;2.20;;;24.50;79.60;;;;;;5031287;28;20021;-86
2021/06/19 07:57:40;;;;;;;4.00;2.00;;;24.50;78.80;;;;;;5029884;28;20394;-89
2021/06/19 08:00:07;;;;;;;4.93;2.00;;;24.50;79.00;;;;;;5027148;28;20558;-87
2021/06/19 08:02:33;;;;;;;5.28;2.10;;;24.50;78.90;;;;;;5028323;28;20026;-86
2021/06/19 08:04:59;;;;;;;3.88;1.90;;;24.50;78.90;;;;;;5025522;28;20022;-86
2021/06/19 08:07:24;;;;;;;3.00;1.73;;;24.60;78.70;;;;;;5025068;28;20037;-87
2021/06/19 08:09:50;;;;;;;2.70;1.60;;;24.60;77.70;;;;;;5026156;28;20072;-87
2021/06/19 08:12:16;;;;;;;4.88;2.50;;;24.60;77.60;;;;;;5025156;28;20371;-87
2021/06/19 08:14:41;;;;;;;5.90;2.40;;;24.60;77.80;;;;;;5027216;28;20033;-87
2021/06/19 08:17:23;;;;;;;5.15;2.63;;;24.60;77.90;;;;;;5026466;28;20090;-87
2021/06/19 08:19:49;;;;;;;4.25;2.30;;;24.70;77.90;;;;;;5029476;28;20025;-87
2021/06/19 08:22:15;;;;;;;3.50;2.00;;;24.70;78.10;;;;;;5030010;28;20026;-87
2021/06/19 08:24:41;;;;;;;4.22;1.80;;;24.70;78.70;;;;;;5032574;28;20022;-87
2021/06/19 08:27:07;;;;;;;2.80;1.65;;;24.70;77.80;;;;;;5032551;28;20519;-87
2021/06/19 08:29:33;;;;;;;4.00;1.90;;;24.70;76.90;;;;;;5031460;28;20072;-87
2021/06/19 08:32:00;;;;;;;3.72;1.52;;;24.80;76.60;;;;;;5031742;28;20418;-87
2021/06/19 08:34:25;;;;;;;3.03;1.70;;;24.80;75.80;;;;;;5032634;28;20091;-87
2021/06/19 08:36:51;;;;;;;4.03;2.20;;;24.80;75.90;;;;;;5032234;28;20458;-87
2021/06/19 08:39:17;;;;;;;3.60;2.00;;;24.80;75.90;;;;;;5032018;28;20541;-87
2021/06/19 08:41:44;;;;;;;4.63;1.88;;;24.80;76.40;;;;;;5032598;28;20117;-87
2021/06/19 08:44:10;;;;;;;5.15;2.72;;;24.80;76.50;;;;;;5036619;28;20024;-87
2021/06/19 08:46:36;;;;;;;4.93;2.10;;;24.80;76.50;;;;;;5032447;28;20430;-85
2021/06/19 08:49:02;;;;;;;4.07;2.30;;;24.80;76.70;;;;;;5032817;28;20061;-87
2021/06/19 08:51:28;;;;;;;4.47;2.10;;;24.80;76.10;;;;;;5032076;28;20052;-87
2021/06/19 08:53:55;;;;;;;3.90;1.90;;;24.90;75.80;;;;;;5032374;28;20037;-87
2021/06/19 08:56:23;;;;;;;4.22;1.80;;;25.00;75.70;;;;;;5032227;28;20033;-87
2021/06/19 08:58:49;;;;;;;7.05;1.90;;;25.00;76.40;;;;;;5032315;28;20032;-87
2021/06/19 09:01:15;;;;;;;3.08;1.70;;;25.00;76.70;;;;;;5030625;28;20033;-88
2021/06/19 09:03:41;;;;;;;4.13;1.90;;;25.10;76.10;;;;;;5032627;28;20021;-88
2021/06/19 09:06:25;;;;;;;8.55;1.95;;;25.10;76.10;;;;;;5032208;28;20389;-88
2021/06/19 09:09:11;;;;;;;5.38;2.72;;;25.10;75.40;;;;;;5033280;28;20040;-87
2021/06/19 09:11:46;;;;;;;6.50;2.83;;;25.20;74.40;;;;;;5033112;28;20025;-87
2021/06/19 09:14:22;;;;;;;4.55;2.83;;;25.20;74.20;;;;;;5033361;28;20104;-87
2021/06/19 09:17:02;;;;;;;4.82;2.50;;;25.20;74.40;;;;;;5030711;28;20029;-87
2021/06/19 09:19:33;;;;;;;4.13;2.00;;;25.20;74.50;;;;;;5032673;28;20045;-87
2021/06/19 09:22:18;;;;;;;5.07;2.45;;;25.30;74.60;;;;;;5031596;28;20017;-87
2021/06/19 09:24:49;;;;;;;6.07;2.15;;;25.20;74.50;;;;;;5031724;28;20343;-87
2021/06/19 09:27:34;;;;;;;3.33;1.90;;;25.20;75.50;;;;;;5031319;28;20105;-87
2021/06/19 09:30:13;;;;;;;5.60;3.10;;;25.30;75.10;;;;;;5030832;28;20029;-87
2021/06/19 09:32:50;;;;;;;4.85;2.22;;;25.30;74.50;;;;;;5031797;28;20533;-88
2021/06/19 09:35:29;;;;;;;4.80;2.33;;;25.30;74.50;;;;;;5031324;28;20059;-87
2021/06/19 09:38:04;;;;;;;5.47;2.63;;;25.30;74.40;;;;;;5031291;28;20017;-87
2021/06/19 09:40:40;;;;;;;5.53;2.63;;;25.30;74.60;;;;;;5032202;28;20022;-87
2021/06/19 09:43:13;;;;;;;3.90;2.17;;;25.30;74.70;;;;;;5032717;28;20104;-87
2021/06/19 09:45:42;;;;;;;2.95;1.55;;;25.40;74.60;;;;;;5030135;28;20104;-88
2021/06/19 09:48:26;;;;;;;3.53;1.63;;;25.40;74.40;;;;;;5032643;28;20025;-87
2021/06/19 09:51:14;;;;;;;3.30;1.67;;;25.50;74.00;;;;;;5032015;28;20021;-88
2021/06/19 09:53:41;;;;;;;3.22;1.40;;;25.50;74.10;;;;;;5031312;28;20135;-88
2021/06/19 09:56:13;;;;;;;4.00;1.80;;;25.60;74.30;;;;;;5031007;28;20120;-88
2021/06/19 09:58:40;;;;;;;2.70;1.70;;;25.60;73.70;;;;;;5032745;28;20124;-87
2021/06/19 10:01:06;;;;;;;3.50;1.63;;;25.60;73.70;;;;;;5029497;28;20434;-88
2021/06/19 10:03:56;;;;;;;2.72;1.45;;;25.60;73.70;;;;;;5032638;28;20033;-87
2021/06/19 10:06:23;;;;;;;3.75;1.40;;;25.60;73.20;;;;;;5030752;28;20061;-88
2021/06/19 10:08:50;;;;;;;4.13;1.75;;;25.60;73.10;;;;;;5030393;28;20496;-88
2021/06/19 10:11:16;;;;;;;3.65;1.95;;;25.70;72.70;;;;;;5030072;28;20025;-88
2021/06/19 10:13:46;;;;;;;3.67;1.77;;;25.70;71.30;;;;;;5030860;28;20469;-88
2021/06/19 10:16:18;;;;;;;3.38;2.20;;;25.70;70.90;;;;;;5029059;28;20033;-87
2021/06/19 10:18:46;;;;;;;6.45;1.80;;;25.80;71.50;;;;;;5054438;22;20409;-87
2021/06/19 10:21:13;;;;;;;3.60;2.08;;;25.80;71.70;;;;;;5030666;28;20469;-87
2021/06/19 10:23:39;;;;;;;3.55;1.80;;;25.80;72.00;;;;;;5031654;28;20037;-87
2021/06/19 10:26:05;;;;;;;6.63;2.40;;;25.80;72.20;;;;;;5031068;28;20083;-86
2021/06/19 10:28:35;;;;;;;6.28;2.20;;;25.80;72.50;;;;;;5031408;28;20029;-87
2021/06/19 10:31:01;;;;;;;5.53;2.88;;;25.90;72.40;;;;;;5030730;28;20124;-86
2021/06/19 10:33:35;;;;;;;4.18;2.60;;;25.90;72.50;;;;;;5031374;28;20224;-87
2021/06/19 10:36:07;;;;;;;5.47;2.17;;;25.90;72.50;;;;;;5031135;28;20034;-87
2021/06/19 10:38:47;;;;;;;4.85;1.90;;;25.90;72.60;;;;;;5031368;28;20021;-87
2021/06/19 10:41:13;;;;;;;3.03;1.70;;;26.00;73.50;;;;;;5030843;28;20028;-87
2021/06/19 10:43:47;;;;;;;3.45;1.60;;;26.00;73.20;;;;;;5032547;28;20083;-87
2021/06/19 10:46:31;;;;;;;4.68;1.77;;;26.00;73.40;;;;;;5029049;28;20025;-87
2021/06/19 10:48:59;;;;;;;4.88;2.20;;;26.10;73.20;;;;;;5030579;28;20071;-86
2021/06/19 10:51:29;;;;;;;3.63;1.92;;;26.10;72.60;;;;;;5030686;28;20029;-86
2021/06/19 10:54:14;;;;;;;2.90;1.83;;;26.10;73.10;;;;;;5030955;28;20037;-87
2021/06/19 10:56:56;;;;;;;3.40;1.90;;;26.10;72.60;;;;;;5030528;28;20021;-87
2021/06/19 10:59:23;;;;;;;6.32;2.88;;;26.20;71.90;;;;;;5030188;28;20021;-86
2021/06/19 11:01:51;;;;;;;6.43;3.45;;;26.20;71.50;;;;;;5031178;28;20180;-87
2021/06/19 11:04:38;;;;;;;5.30;2.60;;;26.20;71.60;;;;;;5030568;28;20036;-87
2021/06/19 11:07:05;;;;;;;4.90;2.55;;;26.20;71.90;;;;;;5030052;28;20030;-86
2021/06/19 11:09:39;;;;;;;7.28;2.80;;;26.20;72.10;;;;;;5030044;28;20203;-87
2021/06/19 11:12:09;;;;;;;5.43;2.22;;;26.30;71.70;;;;;;5030456;28;20037;-86
2021/06/19 11:14:47;;;;;;;6.50;2.50;;;26.30;71.30;;;;;;5031711;28;20025;-87
2021/06/19 11:17:22;;;;;;;3.42;1.73;;;26.30;70.60;;;;;;5030568;28;20024;-86
2021/06/19 11:20:28;;;;;;;3.63;1.70;;;26.30;70.30;;;;;;5031504;28;20032;-87
2021/06/19 11:22:53;;;;;;;4.28;1.67;;;26.40;69.30;;;;;;5029994;28;20038;-87
2021/06/19 11:25:29;;;;;;;4.03;2.00;;;26.40;69.20;;;;;;5030357;28;20080;-87
2021/06/19 11:28:02;;;;;;;3.92;2.00;;;26.50;68.90;;;;;;5030307;28;20347;-87
2021/06/19 11:30:36;;;;;;;2.88;1.55;;;26.50;69.20;;;;;;5030669;28;20021;-87
2021/06/19 11:33:26;;;;;;;4.13;2.10;;;26.50;69.50;;;;;;5030118;28;20478;-87
2021/06/19 11:36:13;;;;;;;3.88;1.73;;;26.50;69.30;;;;;;5029921;28;20478;-87
2021/06/19 11:38:49;;;;;;;3.67;2.10;;;26.60;69.20;;;;;;5029937;28;20025;-87
2021/06/19 11:41:18;;;;;;;3.42;1.95;;;26.70;69.00;;;;;;5029520;28;20040;-86
2021/06/19 11:43:44;;;;;;;3.47;1.80;;;26.70;69.40;;;;;;5030231;28;20032;-87
2021/06/19 11:46:10;;;;;;;3.75;2.17;;;26.80;69.50;;;;;;5028623;28;20390;-87
2021/06/19 11:49:02;;;;;;;3.67;1.90;;;26.80;69.20;;;;;;5029811;28;20060;-87
2021/06/19 11:51:31;;;;;;;4.60;2.10;;;26.80;69.20;;;;;;5031130;28;20478;-87
2021/06/19 11:54:00;;;;;;;4.63;1.95;;;26.90;69.60;;;;;;5030272;28;20187;-86
2021/06/19 11:56:28;;;;;;;5.03;2.03;;;27.00;69.20;;;;;;5028201;28;20037;-87
2021/06/19 11:59:02;;;;;;;5.88;2.38;;;27.00;69.10;;;;;;5029166;28;20035;-87
2021/06/19 12:01:36;;;;;;;5.95;2.25;;;27.00;68.90;;;;;;5028266;28;20095;-87
2021/06/19 12:04:04;;;;;;;4.63;2.40;;;27.00;69.50;;;;;;5029875;28;20106;-86
2021/06/19 12:06:31;;;;;;;;;;;27.10;69.30;;;;;;5031411;28;20466;-87
2021/06/19 12:08:57;;;;;;;4.82;1.90;;;27.10;69.40;;;;;;5029145;28;20043;-87
2021/06/19 12:11:28;;;;;;;3.95;2.00;;;27.30;69.90;;;;;;5029685;28;20033;-87
2021/06/19 12:13:54;;;;;;;3.33;2.00;;;27.40;68.90;;;;;;5030301;28;20061;-86
2021/06/19 12:16:28;;;;;;;2.10;1.40;;;27.40;68.70;;;;;;5028124;28;20045;-87
2021/06/19 12:26:32;;;;;;;4.68;1.38;;;27.60;67.80;;;;;;5031007;28;20057;-87
2021/06/19 12:30:06;;;;;;;3.95;1.30;;;27.70;68.10;;;;;;5015162;28;20512;-87
2021/06/19 12:32:45;;;;;;;4.78;2.10;;;27.80;68.20;;;;;;5010973;28;20054;-86
2021/06/19 12:35:57;;;;;;;4.70;2.38;;;27.90;67.40;;;;;;5029324;28;20577;-87
2021/06/19 12:38:37;;;;;;;3.78;2.45;;;27.90;67.10;;;;;;4999895;28;20041;-87
2021/06/19 12:41:25;;;;;;;4.68;1.95;;;27.90;67.30;;;;;;5027275;28;20038;-87
2021/06/19 12:51:50;;;;;;;3.90;2.22;;;28.50;66.60;;;;;;5029716;28;20117;-87
2021/06/19 12:55:06;;;;;;;4.15;2.40;;;28.60;64.90;;;;;;5030816;28;20093;-86
2021/06/19 13:01:50;;;;;;;6.93;2.67;;;28.50;65.70;;;;;;5027007;28;20509;-87
2021/06/19 13:04:47;;;;;;;3.80;2.22;;;28.40;65.60;;;;;;5025968;28;20367;-87
2021/06/19 13:19:09;;;;;;;5.25;2.72;;;28.30;66.90;;;;;;5034711;28;20182;-87
2021/06/19 13:22:35;;;;;;;7.88;2.65;;;28.40;67.20;;;;;;5033730;28;20022;-87
2021/06/19 13:29:43;;;;;;;3.38;1.85;;;28.30;67.00;;;;;;5034182;28;20041;-87
2021/06/19 13:36:31;;;;;;;3.50;1.85;;;28.20;67.10;;;;;;4991782;28;20049;-87
2021/06/19 13:40:12;;;;;;;2.95;1.95;;;28.30;66.50;;;;;;4990926;28;20495;-86
2021/06/19 13:43:03;;;;;;;3.65;2.30;;;28.20;66.70;;;;;;4975512;28;20046;-87